Time;durP1;ratioP1;P1;durP2;ratioP2;P2;SDS_P1;SDS_P2;PMS_P1;PMS_P2;Temp;Humidity;BMP_temperature;BMP_pressure;BME280_temperature;BME280_humidity;BME280_pressure;Samples;Min_cycle;Max_cycle;Signal;HPM_P1;HPM_P2
2021/09/06 00:00:13;;;;;;;948.97;885.50;;;;;;;10.97;68.50;94039.06;5092179;28;20069;-42
2021/09/06 00:02:39;;;;;;;940.05;875.38;;;;;;;10.95;68.73;94038.13;5091717;28;20066;-42
2021/09/06 00:05:09;;;;;;;922.38;860.75;;;;;;;10.93;68.68;94037.91;5092382;28;20074;-42
2021/09/06 00:07:34;;;;;;;928.30;866.95;;;;;;;10.87;68.80;94037.31;5091974;28;20017;-42
2021/09/06 00:10:18;;;;;;;959.75;894.15;;;;;;;10.86;68.78;94047.59;5091981;28;20031;-42
2021/09/06 00:12:43;;;;;;;941.28;876.33;;;;;;;10.82;69.15;94043.69;5091923;28;20471;-42
2021/09/06 00:15:09;;;;;;;970.28;905.03;;;;;;;10.83;69.48;94034.13;5091961;28;20054;-42
2021/09/06 00:17:35;;;;;;;971.60;904.38;;;;;;;10.80;69.58;94037.97;5091478;28;20020;-44
2021/09/06 00:20:00;;;;;;;987.83;919.95;;;;;;;10.84;69.36;94046.66;5087623;28;20058;-43
2021/09/06 00:22:26;;;;;;;957.55;892.75;;;;;;;10.71;69.14;94050.19;5091641;28;20066;-43
2021/09/06 00:24:51;;;;;;;984.13;917.88;;;;;;;10.61;69.44;94046.41;5092018;28;20405;-43
2021/09/06 00:27:16;;;;;;;952.80;887.50;;;;;;;10.62;69.47;94045.88;5091097;28;20408;-44
2021/09/06 00:29:42;;;;;;;947.00;884.25;;;;;;;10.65;69.16;94046.81;5091705;28;20378;-43
2021/09/06 00:32:07;;;;;;;947.97;884.35;;;;;;;10.62;69.30;94051.38;5086469;28;20020;-43
2021/09/06 00:34:33;;;;;;;956.17;887.75;;;;;;;10.57;69.34;94049.47;5090080;28;20039;-43
2021/09/06 00:36:58;;;;;;;958.65;892.55;;;;;;;10.61;69.67;94044.38;5090692;28;20103;-43
2021/09/06 00:39:23;;;;;;;946.83;883.22;;;;;;;10.60;69.92;94051.19;5091826;28;20016;-43
2021/09/06 00:41:49;;;;;;;972.22;906.15;;;;;;;10.61;70.04;94051.94;5090869;28;20031;-44
2021/09/06 00:44:14;;;;;;;952.90;886.38;;;;;;;10.55;70.34;94052.03;5091626;28;20679;-44
2021/09/06 00:46:45;;;;;;;974.50;906.58;;;;;;;10.54;70.87;94053.31;5090642;28;20058;-44
2021/09/06 00:49:10;;;;;;;953.03;886.95;;;;;;;10.45;70.53;94051.00;5071055;28;20024;-44
2021/09/06 00:51:36;;;;;;;983.17;914.72;;;;;;;10.45;70.59;94056.53;5071270;28;20031;-44
2021/09/06 00:54:01;;;;;;;976.88;908.28;;;;;;;10.44;70.60;94055.03;5070637;28;20551;-44
2021/09/06 00:56:27;;;;;;;954.60;889.75;;;;;;;10.47;70.65;94053.97;5070636;28;20106;-44
2021/09/06 00:58:52;;;;;;;956.42;892.35;;;;;;;10.46;69.75;94057.28;5086566;28;20021;-43
2021/09/06 01:01:18;;;;;;;949.13;882.75;;;;;;;10.41;70.69;94047.06;5071035;28;20029;-43
2021/09/06 01:03:43;;;;;;;957.45;892.15;;;;;;;10.38;70.93;94059.16;5086450;28;20521;-45
2021/09/06 01:06:08;;;;;;;961.47;893.65;;;;;;;10.42;70.90;94054.81;5091017;28;20077;-44
2021/09/06 01:08:34;;;;;;;957.25;892.28;;;;;;;10.33;70.61;94054.53;5088890;28;20032;-44
2021/09/06 01:11:00;;;;;;;993.17;921.25;;;;;;;10.40;70.57;94056.63;5089644;28;20024;-43
2021/09/06 01:13:25;;;;;;;995.22;924.22;;;;;;;10.38;70.99;94059.91;5090169;28;20031;-43
2021/09/06 01:15:51;;;;;;;981.80;910.13;;;;;;;10.35;71.15;94058.22;5088259;28;20103;-44
2021/09/06 01:18:16;;;;;;;1002.38;930.38;;;;;;;10.35;70.97;94057.50;5088907;28;20028;-44
2021/09/06 01:20:42;;;;;;;989.35;918.97;;;;;;;10.33;70.82;94058.00;5090634;28;20085;-44
2021/09/06 01:23:10;;;;;;;973.30;904.38;;;;;;;10.36;71.38;94059.72;5090661;28;20016;-43
2021/09/06 01:25:36;;;;;;;990.03;918.13;;;;;;;10.26;71.17;94052.41;5089245;28;20528;-45
2021/09/06 01:28:01;;;;;;;989.08;917.67;;;;;;;10.27;71.04;94057.38;5090877;28;20025;-44
2021/09/06 01:30:27;;;;;;;996.08;925.17;;;;;;;10.28;71.08;94061.63;5090468;28;20127;-44
2021/09/06 01:32:52;;;;;;;985.53;915.63;;;;;;;10.29;71.14;94065.13;5090886;28;20016;-43
2021/09/06 01:35:18;;;;;;;1041.38;956.88;;;;;;;10.34;70.35;94064.28;5090539;28;20516;-43
2021/09/06 01:37:43;;;;;;;974.03;905.60;;;;;;;10.21;69.90;94064.28;5090817;28;20095;-44
2021/09/06 01:40:09;;;;;;;979.78;912.78;;;;;;;10.11;70.40;94060.47;5090726;28;20444;-44
2021/09/06 01:42:34;;;;;;;971.47;902.50;;;;;;;10.18;70.60;94055.03;5090652;28;20032;-44
2021/09/06 01:45:02;;;;;;;979.50;912.72;;;;;;;10.10;70.94;94067.22;5090593;28;20016;-43
2021/09/06 01:47:28;;;;;;;1016.60;940.42;;;;;;;10.14;70.99;94068.44;5090285;28;20032;-44
2021/09/06 01:49:54;;;;;;;1008.83;938.40;;;;;;;10.08;71.84;94067.00;5090334;28;20031;-45
2021/09/06 01:52:19;;;;;;;995.88;925.95;;;;;;;10.11;71.50;94064.00;5089928;28;20024;-44
2021/09/06 01:54:44;;;;;;;1001.35;929.92;;;;;;;10.10;72.68;94069.97;5082344;28;20433;-42
2021/09/06 01:57:10;;;;;;;1015.92;941.15;;;;;;;10.17;72.75;94074.91;5090550;28;20012;-43
2021/09/06 01:59:35;;;;;;;1023.20;949.85;;;;;;;10.22;72.71;94074.06;5090359;28;20660;-43
2021/09/06 02:02:01;;;;;;;1006.30;933.20;;;;;;;10.27;72.05;94068.41;5090478;28;20106;-42
2021/09/06 02:04:26;;;;;;;1017.50;944.50;;;;;;;10.23;70.62;94070.75;5090337;28;20523;-42
2021/09/06 02:06:52;;;;;;;983.28;912.92;;;;;;;10.20;70.14;94074.56;5090408;28;20457;-42
2021/09/06 02:09:17;;;;;;;1017.17;942.60;;;;;;;10.16;70.68;94079.66;5090104;28;20100;-42
2021/09/06 02:11:42;;;;;;;993.38;924.08;;;;;;;10.09;70.53;94074.75;5088452;28;20032;-42
2021/09/06 02:14:08;;;;;;;1002.10;933.25;;;;;;;10.10;71.11;94067.22;5070240;28;20024;-42
2021/09/06 02:16:33;;;;;;;1006.00;935.08;;;;;;;10.04;70.73;94077.63;5070111;28;20017;-42
2021/09/06 02:18:59;;;;;;;1001.55;931.38;;;;;;;10.00;71.33;94077.22;5069780;28;20024;-43
2021/09/06 02:21:24;;;;;;;1017.63;944.42;;;;;;;10.00;71.63;94075.19;5069820;28;20032;-43
2021/09/06 02:23:50;;;;;;;997.03;925.95;;;;;;;9.99;71.04;94078.47;5070127;28;20108;-42
2021/09/06 02:26:15;;;;;;;1009.30;937.92;;;;;;;10.02;71.10;94069.91;5069743;28;20024;-43
2021/09/06 02:28:41;;;;;;;966.30;898.75;;;;;;;10.00;70.41;94075.19;5069694;28;20040;-42
2021/09/06 02:31:06;;;;;;;992.15;920.83;;;;;;;9.94;70.83;94075.28;5070076;28;20039;-42
2021/09/06 02:33:33;;;;;;;1000.00;927.83;;;;;;;9.76;71.59;94072.63;5069677;28;20017;-43
2021/09/06 02:35:58;;;;;;;998.55;927.28;;;;;;;9.64;72.11;94077.59;5070001;28;20107;-45
2021/09/06 02:38:24;;;;;;;1052.00;966.05;;;;;;;9.86;72.19;94079.94;5069865;28;20469;-41
2021/09/06 02:40:49;;;;;;;1011.38;935.90;;;;;;;9.88;70.33;94084.94;5069868;28;20435;-43
2021/09/06 02:43:14;;;;;;;1024.47;950.67;;;;;;;9.76;69.56;94087.16;5071726;28;20040;-42
2021/09/06 02:45:40;;;;;;;997.47;927.17;;;;;;;9.75;70.11;94087.66;5089903;28;20035;-42
2021/09/06 02:48:06;;;;;;;1009.00;938.17;;;;;;;9.68;70.52;94091.78;5089728;28;20024;-42
2021/09/06 02:50:31;;;;;;;1044.25;969.65;;;;;;;9.65;70.99;94094.88;5089378;28;20031;-42
2021/09/06 02:52:56;;;;;;;1013.63;939.13;;;;;;;9.65;71.90;94089.34;5089308;28;20050;-43
2021/09/06 02:55:23;;;;;;;1021.25;945.75;;;;;;;9.54;72.30;94087.53;5089491;28;20105;-43
2021/09/06 02:57:48;;;;;;;1007.78;934.00;;;;;;;9.49;72.89;94084.84;5089966;28;20467;-43
2021/09/06 03:00:14;;;;;;;1047.72;968.92;;;;;;;9.33;72.26;94072.84;5089977;28;20024;-42
2021/09/06 03:02:40;;;;;;;982.30;911.47;;;;;;;9.37;71.84;94058.75;5089508;28;20024;-42
2021/09/06 03:05:06;;;;;;;1014.67;939.60;;;;;;;9.42;72.20;94085.50;5090333;28;20023;-42
2021/09/06 03:07:32;;;;;;;1019.60;943.97;;;;;;;9.59;72.20;94097.00;5093484;28;20051;-42
2021/09/06 03:09:58;;;;;;;1015.67;939.70;;;;;;;9.38;71.24;94068.50;5093165;28;20497;-42
2021/09/06 03:12:23;;;;;;;1023.85;949.75;;;;;;;9.57;71.36;94096.78;5093121;28;20493;-42
2021/09/06 03:14:49;;;;;;;1003.83;929.63;;;;;;;9.52;71.28;94103.09;5093118;28;20020;-42
2021/09/06 03:17:14;;;;;;;1045.07;968.10;;;;;;;9.48;71.96;94106.19;5093476;28;20061;-42
2021/09/06 03:19:39;;;;;;;1024.25;947.55;;;;;;;9.52;71.88;94098.34;5093310;28;20464;-43
2021/09/06 03:22:05;;;;;;;1049.25;970.35;;;;;;;9.50;72.08;94098.13;5093236;28;20753;-42
2021/09/06 03:24:30;;;;;;;1026.07;950.60;;;;;;;9.48;72.50;94097.91;5092905;28;20035;-43
2021/09/06 03:26:56;;;;;;;1022.72;946.58;;;;;;;9.46;72.74;94105.97;5092789;28;20024;-42
2021/09/06 03:29:21;;;;;;;1034.13;957.22;;;;;;;9.42;72.34;94107.53;5092949;28;20027;-42
2021/09/06 03:31:46;;;;;;;1024.50;948.55;;;;;;;9.32;71.91;94109.19;5093060;28;20037;-42
2021/09/06 03:34:12;;;;;;;1011.85;938.08;;;;;;;9.29;71.67;94115.75;5093111;28;20020;-42
2021/09/06 03:36:37;;;;;;;1030.88;955.88;;;;;;;9.24;72.73;94111.06;5092849;28;20101;-41
2021/09/06 03:39:03;;;;;;;1069.55;989.55;;;;;;;9.28;72.77;94115.00;5092884;28;20027;-41
2021/09/06 03:41:30;;;;;;;1031.55;954.90;;;;;;;9.38;72.15;94118.09;5092814;28;20024;-41
2021/09/06 03:43:56;;;;;;;1026.28;949.50;;;;;;;9.52;72.30;94114.13;5091166;28;20032;-41
2021/09/06 03:46:21;;;;;;;1071.20;989.22;;;;;;;9.58;73.17;94114.78;5092588;28;20039;-41
2021/09/06 03:48:46;;;;;;;1057.70;978.92;;;;;;;9.63;73.34;94111.94;5092428;28;20027;-41
2021/09/06 03:51:12;;;;;;;1075.68;994.88;;;;;;;9.76;72.93;94114.75;5092764;28;20020;-41
2021/09/06 03:53:37;;;;;;;1060.93;983.05;;;;;;;9.74;71.58;94122.03;5092006;28;20035;-41
2021/09/06 03:56:03;;;;;;;1026.32;948.58;;;;;;;9.78;72.32;94131.50;5092030;28;20048;-41
2021/09/06 03:58:28;;;;;;;1043.03;963.55;;;;;;;9.79;71.52;94124.69;5092195;28;20051;-41
2021/09/06 04:00:54;;;;;;;1065.88;980.67;;;;;;;9.82;71.62;94133.94;5092280;28;20090;-41
2021/09/06 04:03:19;;;;;;;1026.30;951.80;;;;;;;9.91;71.27;94131.53;5092488;28;20027;-41
2021/09/06 04:05:45;;;;;;;1049.65;967.00;;;;;;;9.91;71.95;94130.78;5076438;28;20024;-41
2021/09/06 04:08:10;;;;;;;1043.68;967.50;;;;;;;10.00;71.88;94127.63;5070337;28;20413;-41
2021/09/06 04:10:36;;;;;;;1037.10;960.28;;;;;;;10.15;71.24;94135.41;5071635;28;20028;-44
2021/09/06 04:13:01;;;;;;;1045.95;966.67;;;;;;;10.13;70.53;94144.22;5071913;28;20039;-45
2021/09/06 04:15:26;;;;;;;1055.78;977.20;;;;;;;10.22;70.11;94135.50;5071833;28;20020;-43
2021/09/06 04:17:52;;;;;;;1064.13;983.97;;;;;;;10.25;70.26;94128.94;5071678;28;20454;-43
2021/09/06 04:20:17;;;;;;;1002.80;930.60;;;;;;;10.28;70.18;94136.16;5071881;28;20032;-43
2021/09/06 04:22:43;;;;;;;1011.90;937.00;;;;;;;10.34;71.18;94145.06;5071840;28;20047;-43
2021/09/06 04:25:09;;;;;;;1024.70;949.90;;;;;;;10.35;71.36;94140.31;5071913;28;20033;-44
2021/09/06 04:27:35;;;;;;;1028.25;952.80;;;;;;;10.24;72.27;94146.78;5071389;28;20278;-43
2021/09/06 04:30:01;;;;;;;1027.75;949.90;;;;;;;10.44;72.75;94148.13;5071621;28;20025;-43
2021/09/06 04:32:26;;;;;;;1029.93;955.67;;;;;;;10.41;72.34;94147.19;5071321;28;20032;-43
2021/09/06 04:34:51;;;;;;;1029.18;951.85;;;;;;;10.41;72.00;94151.97;5071374;28;20025;-43
2021/09/06 04:37:17;;;;;;;1044.55;968.17;;;;;;;10.45;72.54;94133.06;5071341;28;20020;-43
2021/09/06 04:39:42;;;;;;;1042.97;964.40;;;;;;;10.63;72.43;94157.78;5071293;28;20077;-43
2021/09/06 04:42:08;;;;;;;1046.18;968.30;;;;;;;10.79;72.74;94144.19;5071462;28;20073;-43
2021/09/06 04:44:33;;;;;;;1044.28;962.55;;;;;;;10.73;73.09;94146.31;5084070;28;20428;-43
2021/09/06 04:46:59;;;;;;;1065.22;983.92;;;;;;;10.84;73.28;94155.13;5091523;28;20081;-43
2021/09/06 04:49:24;;;;;;;1058.65;979.22;;;;;;;10.91;72.92;94148.22;5089999;28;20034;-43
2021/09/06 04:51:50;;;;;;;1060.18;979.15;;;;;;;11.00;72.53;94154.03;5091289;28;20030;-43
2021/09/06 04:54:17;;;;;;;1048.68;967.75;;;;;;;11.00;73.09;94154.03;5090883;28;20051;-43
2021/09/06 04:56:43;;;;;;;1067.25;986.10;;;;;;;11.08;72.83;94159.66;5090993;28;20048;-43
2021/09/06 04:59:08;;;;;;;1056.30;973.70;;;;;;;11.10;73.15;94168.16;5091320;28;20081;-43
2021/09/06 05:01:34;;;;;;;1063.43;980.17;;;;;;;11.13;73.31;94162.28;5091473;28;20479;-43
2021/09/06 05:03:59;;;;;;;1055.30;974.97;;;;;;;11.18;73.42;94144.84;5106718;28;20455;-43
2021/09/06 05:06:24;;;;;;;1075.57;992.75;;;;;;;11.32;73.91;94156.63;5090813;28;20027;-43
2021/09/06 05:08:50;;;;;;;1064.78;982.65;;;;;;;11.59;73.44;94158.00;5090648;28;20035;-43
2021/09/06 05:11:15;;;;;;;1065.05;984.05;;;;;;;11.75;72.97;94159.66;5090456;28;20089;-44
2021/09/06 05:13:41;;;;;;;1073.90;993.13;;;;;;;11.84;72.57;94161.97;5090854;28;20036;-44
2021/09/06 05:16:06;;;;;;;1037.45;957.38;;;;;;;11.80;71.48;94167.06;5090696;28;20020;-45
2021/09/06 05:18:32;;;;;;;1038.15;956.90;;;;;;;11.81;71.47;94167.81;5090766;28;20023;-43
2021/09/06 05:20:57;;;;;;;1083.47;998.00;;;;;;;11.67;70.39;94164.41;5090298;28;20161;-43
2021/09/06 05:23:23;;;;;;;1028.57;949.60;;;;;;;11.55;71.03;94173.44;5091067;28;20031;-43
2021/09/06 05:25:48;;;;;;;1022.97;947.55;;;;;;;11.50;71.89;94166.75;5089772;28;20032;-43
2021/09/06 05:28:14;;;;;;;1046.28;965.92;;;;;;;11.63;72.45;94172.22;5089858;28;20031;-43
2021/09/06 05:30:39;;;;;;;1053.85;974.28;;;;;;;11.67;72.68;94169.94;5088818;28;20024;-44
2021/09/06 05:33:05;;;;;;;1082.35;996.58;;;;;;;11.74;73.30;94174.75;5088660;28;20046;-43
2021/09/06 05:35:30;;;;;;;1069.38;985.08;;;;;;;11.80;73.51;94175.38;5089417;28;20019;-44
2021/09/06 05:37:56;;;;;;;1052.68;969.30;;;;;;;11.80;73.50;94171.88;5089185;28;20062;-43
2021/09/06 05:40:21;;;;;;;1077.18;992.35;;;;;;;11.98;73.24;94170.91;5089375;28;20040;-43
2021/09/06 05:42:47;;;;;;;1105.43;999.90;;;;;;;12.06;72.99;94178.00;5089457;28;20058;-43
2021/09/06 05:45:12;;;;;;;1088.60;998.90;;;;;;;12.02;74.06;94168.56;5090168;28;20028;-43
2021/09/06 05:47:38;;;;;;;1078.57;993.92;;;;;;;12.01;74.28;94167.84;5090049;28;20024;-45
2021/09/06 05:50:03;;;;;;;1085.22;997.50;;;;;;;12.05;74.56;94176.53;5090597;28;20103;-44
2021/09/06 05:52:29;;;;;;;1127.28;999.90;;;;;;;12.19;74.37;94175.16;5089551;28;20028;-43
2021/09/06 05:54:54;;;;;;;1114.00;999.90;;;;;;;12.30;74.62;94176.19;5071167;28;20060;-44
2021/09/06 05:57:20;;;;;;;1119.95;999.90;;;;;;;12.45;74.57;94173.53;5070327;28;20031;-45
2021/09/06 05:59:46;;;;;;;1105.22;999.90;;;;;;;12.50;74.63;94169.84;5076056;28;20117;-43
2021/09/06 06:02:12;;;;;;;1125.40;999.90;;;;;;;12.65;74.93;94176.22;5090113;28;20481;-44
2021/09/06 06:04:37;;;;;;;1095.63;999.47;;;;;;;12.87;74.24;94174.88;5089984;28;20469;-44
2021/09/06 06:07:03;;;;;;;1108.43;999.90;;;;;;;13.05;74.04;94182.22;5090089;28;20032;-44
2021/09/06 06:09:28;;;;;;;1082.13;996.67;;;;;;;13.29;74.01;94181.00;5090240;28;20111;-43
2021/09/06 06:11:54;;;;;;;1111.88;999.90;;;;;;;13.53;74.24;94188.88;5090386;28;20024;-46
2021/09/06 06:14:19;;;;;;;1077.10;990.33;;;;;;;13.67;73.61;94179.09;5089896;28;20031;-47
2021/09/06 06:16:45;;;;;;;1086.13;998.47;;;;;;;13.84;73.14;94181.38;5090082;28;20085;-51
2021/09/06 06:19:10;;;;;;;1054.22;975.85;;;;;;;14.08;71.95;94178.03;5089964;28;20028;-49
2021/09/06 06:21:36;;;;;;;1056.65;977.78;;;;;;;14.33;72.02;94181.81;5090180;28;20039;-49
2021/09/06 06:24:02;;;;;;;1037.68;962.47;;;;;;;14.44;71.00;94182.16;5089997;28;20549;-48
2021/09/06 06:26:29;;;;;;;1012.58;939.55;;;;;;;14.52;71.28;94178.63;5089716;28;20099;-45
2021/09/06 06:28:56;;;;;;;1023.38;950.22;;;;;;;14.67;71.04;94178.63;5081419;28;20057;-48
2021/09/06 06:31:21;;;;;;;982.60;910.55;;;;;;;14.76;70.83;94189.16;5087146;28;20394;-47
2021/09/06 06:33:47;;;;;;;976.70;906.13;;;;;;;14.86;70.54;94190.81;5082745;28;20031;-45
2021/09/06 06:36:12;;;;;;;955.55;888.83;;;;;;;14.95;70.12;94190.25;5089682;28;20024;-43
2021/09/06 06:38:37;;;;;;;999.95;928.72;;;;;;;15.01;69.79;94198.38;5089265;28;20024;-44
2021/09/06 06:41:03;;;;;;;959.03;888.95;;;;;;;15.02;70.17;94197.84;5094128;28;20028;-43
2021/09/06 06:43:29;;;;;;;944.05;876.20;;;;;;;15.11;71.61;94193.72;5089750;28;20048;-43
2021/09/06 06:45:55;;;;;;;954.78;885.95;;;;;;;15.36;70.81;94193.81;5073647;28;20472;-45
2021/09/06 06:48:21;;;;;;;960.47;887.47;;;;;;;15.61;69.00;94194.69;5073553;28;20020;-45
2021/09/06 06:50:46;;;;;;;916.25;846.60;;;;;;;15.75;68.55;94195.91;5073307;28;20042;-46
2021/09/06 06:53:12;;;;;;;942.63;868.80;;;;;;;16.06;68.06;94194.44;5077524;28;20027;-45
2021/09/06 06:55:37;;;;;;;942.15;865.33;;;;;;;16.38;67.41;94197.16;5093463;28;20044;-43
2021/09/06 06:58:02;;;;;;;943.30;863.05;;;;;;;16.50;67.45;94209.34;5080355;28;20099;-43
2021/09/06 07:00:28;;;;;;;957.72;881.13;;;;;;;16.58;65.26;94201.69;5072986;28;20025;-42
2021/09/06 07:02:54;;;;;;;965.53;883.28;;;;;;;16.63;65.68;94203.50;5073120;28;20032;-45
2021/09/06 07:05:20;;;;;;;970.72;888.22;;;;;;;16.63;65.97;94206.28;5078797;28;20066;-44
2021/09/06 07:07:45;;;;;;;959.85;876.20;;;;;;;16.63;65.85;94209.06;5093522;28;20632;-46
2021/09/06 07:10:11;;;;;;;959.63;879.38;;;;;;;16.62;65.45;94198.50;5093210;28;20494;-45
2021/09/06 07:12:37;;;;;;;952.35;870.00;;;;;;;16.62;65.00;94207.59;5093380;28;20024;-44
2021/09/06 07:15:04;;;;;;;949.58;868.90;;;;;;;16.65;65.14;94206.44;5093208;28;20043;-45
2021/09/06 07:17:29;;;;;;;945.70;865.88;;;;;;;16.67;63.31;94209.41;5093370;28;20027;-44
2021/09/06 07:19:55;;;;;;;946.53;872.60;;;;;;;16.79;62.64;94212.47;5093170;28;20436;-45
2021/09/06 07:22:22;;;;;;;987.00;906.30;;;;;;;17.87;59.69;94214.28;5092964;28;20028;-46
2021/09/06 07:24:47;;;;;;;969.28;889.47;;;;;;;18.89;55.82;94213.16;5086882;28;20752;-48
2021/09/06 07:27:12;;;;;;;908.20;829.13;;;;;;;19.29;53.82;94223.84;5079576;28;20020;-46
2021/09/06 07:29:38;;;;;;;919.15;832.13;;;;;;;19.28;53.71;94223.09;5082363;28;20426;-46
2021/09/06 07:32:04;;;;;;;976.80;877.30;;;;;;;19.80;51.02;94217.06;5080307;28;20516;-44
2021/09/06 07:34:35;;;;;;;1047.40;929.72;;;;;;;20.17;50.67;94213.47;5078288;28;20412;-44
2021/09/06 07:37:05;;;;;;;1108.00;949.05;;;;;;;21.18;48.79;94228.91;5078921;28;20093;-44
2021/09/06 07:39:31;;;;;;;1248.07;954.38;;;;;;;22.48;46.77;94222.63;5077731;28;20039;-45
2021/09/06 07:41:56;;;;;;;1339.90;999.90;;;;;;;23.86;41.48;94226.00;5079672;28;20035;-46
2021/09/06 07:44:22;;;;;;;1213.05;999.90;;;;;;;24.67;39.25;94229.16;5079711;28;20024;-44
2021/09/06 07:46:47;;;;;;;1198.40;999.90;;;;;;;24.14;40.10;94229.69;5078323;28;20025;-44
2021/09/06 07:49:13;;;;;;;1215.53;999.90;;;;;;;23.52;41.80;94232.47;5074178;28;20383;-44
2021/09/06 07:51:38;;;;;;;1288.57;999.90;;;;;;;22.88;43.40;94227.22;5077675;28;20028;-45
2021/09/06 07:54:06;;;;;;;1281.85;999.90;;;;;;;22.43;44.48;94228.63;5079904;28;20031;-46
2021/09/06 07:56:31;;;;;;;1238.55;999.90;;;;;;;22.36;44.76;94223.97;5089663;28;20094;-44
2021/09/06 07:58:57;;;;;;;1240.15;999.90;;;;;;;23.98;40.51;94224.59;5090407;28;20028;-44
2021/09/06 08:01:23;;;;;;;1179.40;999.90;;;;;;;26.47;35.86;94221.34;5089765;28;20440;-46
2021/09/06 08:03:48;;;;;;;1111.72;999.90;;;;;;;27.93;33.36;94220.84;5089601;28;20028;-45
2021/09/06 08:06:14;;;;;;;1080.63;991.53;;;;;;;28.90;30.07;94231.91;5090123;28;20106;-46
2021/09/06 08:08:39;;;;;;;1101.68;999.90;;;;;;;29.66;28.32;94204.81;5089446;28;20851;-42
2021/09/06 08:11:05;;;;;;;1121.93;999.90;;;;;;;30.04;28.22;94223.22;5089132;28;20497;-45
2021/09/06 08:13:30;;;;;;;1110.72;999.90;;;;;;;29.86;28.98;94222.63;5089015;28;20032;-46
2021/09/06 08:15:55;;;;;;;1098.78;999.80;;;;;;;29.99;28.47;94222.38;5089203;28;20024;-44
2021/09/06 08:18:21;;;;;;;1115.53;999.90;;;;;;;30.09;28.41;94224.09;5089482;28;20032;-44
2021/09/06 08:20:46;;;;;;;1114.18;999.90;;;;;;;30.31;28.37;94230.56;5089553;28;20032;-45
2021/09/06 08:23:12;;;;;;;1135.30;999.90;;;;;;;29.19;29.24;94220.22;5089969;28;20039;-44
2021/09/06 08:25:37;;;;;;;1134.50;999.90;;;;;;;27.93;31.23;94227.25;5089723;28;20508;-45
2021/09/06 08:28:03;;;;;;;1144.45;999.90;;;;;;;27.05;32.56;94229.75;5089108;28;20502;-47
2021/09/06 08:30:29;;;;;;;1121.95;999.90;;;;;;;26.48;33.03;94228.50;5089353;28;20505;-44
2021/09/06 08:32:55;;;;;;;1134.20;999.90;;;;;;;25.42;35.67;94228.25;5089421;28;20027;-43
2021/09/06 08:35:21;;;;;;;1141.60;999.90;;;;;;;24.45;37.80;94213.09;5089430;28;20266;-44
2021/09/06 08:37:46;;;;;;;1124.40;999.90;;;;;;;24.53;37.95;94228.41;5089510;28;20496;-44
2021/09/06 08:40:12;;;;;;;1127.53;999.90;;;;;;;23.98;38.85;94224.59;5089408;28;20110;-43
2021/09/06 08:42:38;;;;;;;1108.40;999.90;;;;;;;23.94;40.23;94220.81;5088875;28;20032;-44
2021/09/06 08:45:06;;;;;;;1097.35;996.50;;;;;;;25.44;37.04;94224.78;5084541;28;20032;-46
2021/09/06 08:47:32;;;;;;;1120.63;999.90;;;;;;;26.36;34.59;94222.97;5086835;28;20121;-45
2021/09/06 08:49:58;;;;;;;1132.47;999.90;;;;;;;27.89;33.10;94223.50;5080937;28;20119;-45
2021/09/06 08:52:24;;;;;;;1134.85;999.90;;;;;;;28.68;30.67;94230.31;5068570;28;20040;-44
2021/09/06 08:54:50;;;;;;;1123.72;999.90;;;;;;;28.79;30.89;94230.06;5085981;28;20082;-43
2021/09/06 08:57:15;;;;;;;1129.68;999.90;;;;;;;28.39;30.95;94229.16;5089319;28;20028;-44
2021/09/06 08:59:44;;;;;;;1156.65;999.90;;;;;;;28.12;31.92;94231.59;5088840;28;20463;-44
2021/09/06 09:02:09;;;;;;;1150.88;999.90;;;;;;;27.29;33.38;94222.34;5088009;28;20476;-44
2021/09/06 09:04:35;;;;;;;1137.13;999.90;;;;;;;27.53;32.73;94225.53;5083742;28;20067;-45
2021/09/06 09:07:02;;;;;;;1136.80;999.90;;;;;;;26.69;33.32;94225.97;5075902;28;20032;-44
2021/09/06 09:09:29;;;;;;;1124.45;999.90;;;;;;;25.39;35.97;94223.81;5082696;28;20592;-44
2021/09/06 09:12:11;;;;;;;1159.30;999.90;;;;;;;24.53;38.30;94222.00;5074456;28;20029;-44
2021/09/06 09:14:41;;;;;;;1115.65;999.90;;;;;;;23.63;39.24;94221.16;5077132;28;20523;-44
2021/09/06 09:17:08;;;;;;;1103.70;999.72;;;;;;;22.95;41.20;94222.72;5076283;28;20021;-44
2021/09/06 09:19:33;;;;;;;1110.82;999.90;;;;;;;22.39;42.80;94223.47;5077663;28;20036;-44
2021/09/06 09:22:03;;;;;;;1100.53;998.65;;;;;;;22.01;43.83;94215.44;5081654;28;20040;-43
2021/09/06 09:24:28;;;;;;;1077.05;981.15;;;;;;;21.65;45.59;94225.03;5075621;28;20574;-44
2021/09/06 09:26:56;;;;;;;1073.03;979.88;;;;;;;21.32;45.73;94221.44;5084199;28;20028;-45
2021/09/06 09:29:22;;;;;;;1080.80;984.47;;;;;;;21.00;46.65;94233.28;5087544;28;20054;-45
2021/09/06 09:31:52;;;;;;;1072.22;976.97;;;;;;;20.50;48.39;94233.34;5087096;28;20046;-45
2021/09/06 09:34:18;;;;;;;1045.38;956.65;;;;;;;20.10;49.04;94230.47;5086082;28;20479;-44
2021/09/06 09:36:44;;;;;;;1084.68;988.75;;;;;;;19.86;50.23;94235.06;5083950;28;20131;-45
2021/09/06 09:39:18;;;;;;;1087.05;985.95;;;;;;;19.42;50.98;94238.19;5088205;28;20028;-44
2021/09/06 09:41:53;;;;;;;1098.38;991.15;;;;;;;19.12;52.74;94235.16;5088293;28;20032;-44
2021/09/06 09:44:21;;;;;;;1115.40;997.83;;;;;;;18.88;52.84;94229.19;5083497;28;20024;-45
2021/09/06 09:47:01;;;;;;;1131.68;999.90;;;;;;;18.60;53.88;94232.63;5090153;28;20040;-44
2021/09/06 09:49:33;;;;;;;1095.45;984.25;;;;;;;18.53;54.71;94227.91;5090588;28;20042;-45
2021/09/06 09:51:59;;;;;;;1138.65;999.90;;;;;;;18.46;54.50;94223.16;5090586;28;20416;-43
2021/09/06 09:54:25;;;;;;;1121.78;996.22;;;;;;;18.49;54.83;94241.59;5075093;28;20029;-44
2021/09/06 09:56:51;;;;;;;1118.80;995.53;;;;;;;18.45;54.62;94243.34;5070031;28;20075;-44
2021/09/06 09:59:18;;;;;;;1151.45;999.90;;;;;;;18.38;55.68;94247.69;5068746;28;20024;-45
2021/09/06 10:02:08;;;;;;;1132.18;999.90;;;;;;;18.16;56.07;94243.91;5068927;28;20024;-45
2021/09/06 10:04:35;;;;;;;1132.22;999.90;;;;;;;18.11;56.58;94241.34;5068038;28;20040;-45
2021/09/06 10:07:01;;;;;;;1229.00;999.90;;;;;;;18.18;56.39;94235.66;5068294;28;20033;-45
2021/09/06 10:09:27;;;;;;;1150.63;999.90;;;;;;;18.06;56.62;94243.09;5084673;28;20594;-43
2021/09/06 10:12:04;;;;;;;1193.43;987.28;;;;;;;18.04;56.99;94240.13;5067184;28;20394;-43
2021/09/06 10:14:32;;;;;;;1184.63;999.90;;;;;;;18.16;56.66;94226.38;5068887;28;20536;-44
2021/09/06 10:17:07;;;;;;;1179.28;998.90;;;;;;;18.14;56.81;94229.75;5080269;28;20035;-44
2021/09/06 10:19:44;;;;;;;1149.93;999.90;;;;;;;19.00;56.04;94223.03;5092043;28;20040;-43
2021/09/06 10:22:24;;;;;;;1221.75;999.90;;;;;;;21.24;49.90;94217.34;5091493;28;20492;-44
2021/09/06 10:25:00;;;;;;;1154.63;999.90;;;;;;;22.13;44.03;94215.47;5091939;28;20413;-45
2021/09/06 10:27:30;;;;;;;1173.30;999.90;;;;;;;22.25;43.81;94216.22;5089724;28;20035;-44
2021/09/06 10:30:04;;;;;;;1179.38;999.90;;;;;;;22.05;43.15;94218.50;5091829;28;20035;-44
2021/09/06 10:32:40;;;;;;;1166.82;999.90;;;;;;;21.41;44.07;94231.88;5091524;28;20028;-43
2021/09/06 10:35:10;;;;;;;1152.63;999.90;;;;;;;20.99;45.65;94231.78;5091365;28;20104;-44
2021/09/06 10:37:39;;;;;;;1140.75;999.90;;;;;;;20.29;46.50;94230.47;5091487;28;20524;-45
2021/09/06 10:40:07;;;;;;;1157.32;999.90;;;;;;;20.19;47.42;94229.72;5091703;28;20491;-44
2021/09/06 10:42:34;;;;;;;1142.80;999.90;;;;;;;20.19;48.36;94236.06;5087162;28;20110;-45
2021/09/06 10:45:00;;;;;;;1163.32;999.90;;;;;;;20.11;48.07;94235.50;5091263;28;20032;-44
2021/09/06 10:47:33;;;;;;;1127.25;999.90;;;;;;;19.96;48.91;94249.09;5090072;28;20522;-44
2021/09/06 10:49:58;;;;;;;1132.93;999.90;;;;;;;19.89;50.38;94241.56;5089778;28;20504;-44
2021/09/06 10:52:25;;;;;;;1129.32;999.90;;;;;;;19.82;50.74;94245.25;5088340;28;20024;-45